sensor_id;sensor_type;location;lat;lon;timestamp;temperature;humidity
8643;DHT22;4359;49.358;11.256;2023-11-21T00:00:23;6.60;99.90
8643;DHT22;4359;49.358;11.256;2023-11-21T00:02:49;6.60;99.90
8643;DHT22;4359;49.358;11.256;2023-11-21T00:05:14;6.60;99.90
8643;DHT22;4359;49.358;11.256;2023-11-21T00:07:40;6.60;99.90
8643;DHT22;4359;49.358;11.256;2023-11-21T00:10:07;6.60;99.90
8643;DHT22;4359;49.358;11.256;2023-11-21T00:12:36;6.60;99.90
8643;DHT22;4359;49.358;11.256;2023-11-21T00:15:02;6.60;99.90
8643;DHT22;4359;49.358;11.256;2023-11-21T00:17:27;6.50;99.90
8643;DHT22;4359;49.358;11.256;2023-11-21T00:19:53;6.60;99.90
8643;DHT22;4359;49.358;11.256;2023-11-21T00:22:19;6.60;99.90
8643;DHT22;4359;49.358;11.256;2023-11-21T00:24:45;6.60;99.90
8643;DHT22;4359;49.358;11.256;2023-11-21T00:27:10;6.60;99.90
8643;DHT22;4359;49.358;11.256;2023-11-21T00:29:36;6.60;99.90
8643;DHT22;4359;49.358;11.256;2023-11-21T00:32:02;6.60;99.90
8643;DHT22;4359;49.358;11.256;2023-11-21T00:34:28;6.60;99.90
8643;DHT22;4359;49.358;11.256;2023-11-21T00:36:53;6.60;99.90
8643;DHT22;4359;49.358;11.256;2023-11-21T00:39:19;6.60;99.90
8643;DHT22;4359;49.358;11.256;2023-11-21T00:41:44;6.60;99.90
8643;DHT22;4359;49.358;11.256;2023-11-21T00:44:10;6.60;99.90
8643;DHT22;4359;49.358;11.256;2023-11-21T00:46:36;6.60;99.90
8643;DHT22;4359;49.358;11.256;2023-11-21T00:49:03;6.60;99.90
8643;DHT22;4359;49.358;11.256;2023-11-21T00:51:29;6.60;99.90
8643;DHT22;4359;49.358;11.256;2023-11-21T00:53:55;6.70;99.90
8643;DHT22;4359;49.358;11.256;2023-11-21T00:56:21;6.70;99.90
8643;DHT22;4359;49.358;11.256;2023-11-21T00:58:47;6.70;99.90
8643;DHT22;4359;49.358;11.256;2023-11-21T01:01:15;6.80;99.90
8643;DHT22;4359;49.358;11.256;2023-11-21T01:03:41;6.70;99.90
8643;DHT22;4359;49.358;11.256;2023-11-21T01:06:06;6.70;99.90
8643;DHT22;4359;49.358;11.256;2023-11-21T01:08:32;6.70;99.90
8643;DHT22;4359;49.358;11.256;2023-11-21T01:10:58;6.70;99.90
8643;DHT22;4359;49.358;11.256;2023-11-21T01:13:23;6.70;99.90
8643;DHT22;4359;49.358;11.256;2023-11-21T01:15:49;6.70;99.90
8643;DHT22;4359;49.358;11.256;2023-11-21T01:18:14;6.70;99.90
8643;DHT22;4359;49.358;11.256;2023-11-21T01:20:40;6.70;99.90
8643;DHT22;4359;49.358;11.256;2023-11-21T01:23:05;6.70;99.90
8643;DHT22;4359;49.358;11.256;2023-11-21T01:25:31;6.60;99.90
8643;DHT22;4359;49.358;11.256;2023-11-21T01:27:56;6.70;99.90
8643;DHT22;4359;49.358;11.256;2023-11-21T01:30:22;6.70;99.90
8643;DHT22;4359;49.358;11.256;2023-11-21T01:32:47;6.70;99.90
8643;DHT22;4359;49.358;11.256;2023-11-21T01:35:13;6.70;99.90
8643;DHT22;4359;49.358;11.256;2023-11-21T01:37:38;6.60;99.90
8643;DHT22;4359;49.358;11.256;2023-11-21T01:40:04;6.70;99.90
8643;DHT22;4359;49.358;11.256;2023-11-21T01:42:36;6.70;99.90
8643;DHT22;4359;49.358;11.256;2023-11-21T01:45:01;6.60;99.90
8643;DHT22;4359;49.358;11.256;2023-11-21T01:47:30;6.60;99.90
8643;DHT22;4359;49.358;11.256;2023-11-21T01:49:56;6.60;99.90
8643;DHT22;4359;49.358;11.256;2023-11-21T01:52:22;6.60;99.90
8643;DHT22;4359;49.358;11.256;2023-11-21T01:54:47;6.60;99.90
8643;DHT22;4359;49.358;11.256;2023-11-21T01:57:13;6.50;99.90
8643;DHT22;4359;49.358;11.256;2023-11-21T01:59:39;6.50;99.90
8643;DHT22;4359;49.358;11.256;2023-11-21T02:02:05;6.50;99.90
8643;DHT22;4359;49.358;11.256;2023-11-21T02:04:34;6.50;99.90
8643;DHT22;4359;49.358;11.256;2023-11-21T02:07:00;6.50;99.90
8643;DHT22;4359;49.358;11.256;2023-11-21T02:09:26;6.50;99.90
8643;DHT22;4359;49.358;11.256;2023-11-21T02:11:52;6.50;99.90
8643;DHT22;4359;49.358;11.256;2023-11-21T02:14:19;6.50;99.90
8643;DHT22;4359;49.358;11.256;2023-11-21T02:16:50;6.40;99.90
8643;DHT22;4359;49.358;11.256;2023-11-21T02:19:19;6.40;99.90
8643;DHT22;4359;49.358;11.256;2023-11-21T02:21:56;6.40;99.90
8643;DHT22;4359;49.358;11.256;2023-11-21T02:24:23;6.50;99.90
8643;DHT22;4359;49.358;11.256;2023-11-21T02:26:49;6.50;99.90
8643;DHT22;4359;49.358;11.256;2023-11-21T02:29:19;6.50;99.90
8643;DHT22;4359;49.358;11.256;2023-11-21T02:31:48;6.50;99.90
8643;DHT22;4359;49.358;11.256;2023-11-21T02:34:14;6.50;99.90
8643;DHT22;4359;49.358;11.256;2023-11-21T02:36:40;6.50;99.90
8643;DHT22;4359;49.358;11.256;2023-11-21T02:39:05;6.50;99.90
8643;DHT22;4359;49.358;11.256;2023-11-21T02:41:32;6.50;99.90
8643;DHT22;4359;49.358;11.256;2023-11-21T02:44:00;6.50;99.90
8643;DHT22;4359;49.358;11.256;2023-11-21T02:46:26;6.50;99.90
8643;DHT22;4359;49.358;11.256;2023-11-21T02:48:51;6.50;99.90
8643;DHT22;4359;49.358;11.256;2023-11-21T02:51:19;6.50;99.90
8643;DHT22;4359;49.358;11.256;2023-11-21T02:53:44;6.50;99.90
8643;DHT22;4359;49.358;11.256;2023-11-21T02:56:12;6.50;99.90
8643;DHT22;4359;49.358;11.256;2023-11-21T02:58:37;6.50;99.90
8643;DHT22;4359;49.358;11.256;2023-11-21T03:01:03;6.50;99.90
8643;DHT22;4359;49.358;11.256;2023-11-21T03:03:32;6.50;99.90
8643;DHT22;4359;49.358;11.256;2023-11-21T03:05:58;6.50;99.90
8643;DHT22;4359;49.358;11.256;2023-11-21T03:08:23;6.50;99.90
8643;DHT22;4359;49.358;11.256;2023-11-21T03:10:49;6.50;99.90
8643;DHT22;4359;49.358;11.256;2023-11-21T03:13:14;6.60;99.90
8643;DHT22;4359;49.358;11.256;2023-11-21T03:15:40;6.50;99.90
8643;DHT22;4359;49.358;11.256;2023-11-21T03:18:05;6.50;99.90
8643;DHT22;4359;49.358;11.256;2023-11-21T03:20:31;6.50;99.90
8643;DHT22;4359;49.358;11.256;2023-11-21T03:22:57;6.50;99.90
8643;DHT22;4359;49.358;11.256;2023-11-21T03:25:22;6.50;99.90
8643;DHT22;4359;49.358;11.256;2023-11-21T03:27:49;6.40;99.90
8643;DHT22;4359;49.358;11.256;2023-11-21T03:30:15;6.50;99.90
8643;DHT22;4359;49.358;11.256;2023-11-21T03:32:40;6.50;99.90
8643;DHT22;4359;49.358;11.256;2023-11-21T03:35:06;6.40;99.90
8643;DHT22;4359;49.358;11.256;2023-11-21T03:37:32;6.50;99.90
8643;DHT22;4359;49.358;11.256;2023-11-21T03:39:57;6.50;99.90
8643;DHT22;4359;49.358;11.256;2023-11-21T03:42:23;6.50;99.90
8643;DHT22;4359;49.358;11.256;2023-11-21T03:44:48;6.40;99.90
8643;DHT22;4359;49.358;11.256;2023-11-21T03:47:14;6.40;99.90
8643;DHT22;4359;49.358;11.256;2023-11-21T03:49:39;6.40;99.90
8643;DHT22;4359;49.358;11.256;2023-11-21T03:52:05;6.30;99.90
8643;DHT22;4359;49.358;11.256;2023-11-21T03:54:31;6.30;99.90
8643;DHT22;4359;49.358;11.256;2023-11-21T03:56:56;6.30;99.90
8643;DHT22;4359;49.358;11.256;2023-11-21T03:59:22;6.30;99.90
8643;DHT22;4359;49.358;11.256;2023-11-21T04:01:49;6.30;99.90
8643;DHT22;4359;49.358;11.256;2023-11-21T04:04:15;6.30;99.90
8643;DHT22;4359;49.358;11.256;2023-11-21T04:06:41;6.30;99.90
8643;DHT22;4359;49.358;11.256;2023-11-21T04:09:06;6.30;99.90
8643;DHT22;4359;49.358;11.256;2023-11-21T04:11:32;6.30;99.90
8643;DHT22;4359;49.358;11.256;2023-11-21T04:13:57;6.30;99.90
8643;DHT22;4359;49.358;11.256;2023-11-21T04:16:23;6.30;99.90
8643;DHT22;4359;49.358;11.256;2023-11-21T04:18:48;6.30;99.90
8643;DHT22;4359;49.358;11.256;2023-11-21T04:21:14;6.30;99.90
8643;DHT22;4359;49.358;11.256;2023-11-21T04:23:39;6.40;99.90
8643;DHT22;4359;49.358;11.256;2023-11-21T04:26:05;6.40;99.90
8643;DHT22;4359;49.358;11.256;2023-11-21T04:28:31;6.40;99.90
8643;DHT22;4359;49.358;11.256;2023-11-21T04:30:56;6.40;99.90
8643;DHT22;4359;49.358;11.256;2023-11-21T04:33:22;6.30;99.90
8643;DHT22;4359;49.358;11.256;2023-11-21T04:35:48;6.30;99.90
8643;DHT22;4359;49.358;11.256;2023-11-21T04:38:13;6.30;99.90
8643;DHT22;4359;49.358;11.256;2023-11-21T04:40:39;6.30;99.90
8643;DHT22;4359;49.358;11.256;2023-11-21T04:43:04;6.30;99.90
8643;DHT22;4359;49.358;11.256;2023-11-21T04:45:30;6.40;99.90
8643;DHT22;4359;49.358;11.256;2023-11-21T04:47:56;6.30;99.90
8643;DHT22;4359;49.358;11.256;2023-11-21T04:50:21;6.30;99.90
8643;DHT22;4359;49.358;11.256;2023-11-21T04:52:47;6.30;99.90
8643;DHT22;4359;49.358;11.256;2023-11-21T04:55:12;6.30;99.90
8643;DHT22;4359;49.358;11.256;2023-11-21T04:57:38;6.30;99.90
8643;DHT22;4359;49.358;11.256;2023-11-21T05:00:07;6.30;99.90
8643;DHT22;4359;49.358;11.256;2023-11-21T05:02:32;6.40;99.90
8643;DHT22;4359;49.358;11.256;2023-11-21T05:04:59;6.40;99.90
8643;DHT22;4359;49.358;11.256;2023-11-21T05:07:25;6.40;99.90
8643;DHT22;4359;49.358;11.256;2023-11-21T05:09:54;6.30;99.90
8643;DHT22;4359;49.358;11.256;2023-11-21T05:12:21;6.30;99.90
8643;DHT22;4359;49.358;11.256;2023-11-21T05:14:47;6.40;99.90
8643;DHT22;4359;49.358;11.256;2023-11-21T05:17:14;6.40;99.90
8643;DHT22;4359;49.358;11.256;2023-11-21T05:19:39;6.40;99.90
8643;DHT22;4359;49.358;11.256;2023-11-21T05:22:05;6.30;99.90
8643;DHT22;4359;49.358;11.256;2023-11-21T05:24:31;6.30;99.90
8643;DHT22;4359;49.358;11.256;2023-11-21T05:26:57;6.30;99.90
8643;DHT22;4359;49.358;11.256;2023-11-21T05:29:23;6.30;99.90
8643;DHT22;4359;49.358;11.256;2023-11-21T05:31:48;6.30;99.90
8643;DHT22;4359;49.358;11.256;2023-11-21T05:34:14;6.20;99.90
8643;DHT22;4359;49.358;11.256;2023-11-21T05:36:42;6.30;99.90
8643;DHT22;4359;49.358;11.256;2023-11-21T05:39:08;6.20;99.90
8643;DHT22;4359;49.358;11.256;2023-11-21T05:41:33;6.20;99.90
8643;DHT22;4359;49.358;11.256;2023-11-21T05:43:59;6.30;99.90
8643;DHT22;4359;49.358;11.256;2023-11-21T05:46:26;6.30;99.90
8643;DHT22;4359;49.358;11.256;2023-11-21T05:48:52;6.30;99.90
8643;DHT22;4359;49.358;11.256;2023-11-21T05:51:17;6.40;99.90
8643;DHT22;4359;49.358;11.256;2023-11-21T05:53:43;6.30;99.90
8643;DHT22;4359;49.358;11.256;2023-11-21T05:56:08;6.30;99.90
8643;DHT22;4359;49.358;11.256;2023-11-21T05:58:34;6.30;99.90
8643;DHT22;4359;49.358;11.256;2023-11-21T06:00:59;6.40;99.90
8643;DHT22;4359;49.358;11.256;2023-11-21T06:03:25;6.40;99.90
8643;DHT22;4359;49.358;11.256;2023-11-21T06:05:50;6.40;99.90
8643;DHT22;4359;49.358;11.256;2023-11-21T06:08:16;6.40;99.90
8643;DHT22;4359;49.358;11.256;2023-11-21T06:10:42;6.50;99.90
8643;DHT22;4359;49.358;11.256;2023-11-21T06:13:09;6.50;99.90
8643;DHT22;4359;49.358;11.256;2023-11-21T06:15:36;6.40;99.90
8643;DHT22;4359;49.358;11.256;2023-11-21T06:18:01;6.30;99.90
8643;DHT22;4359;49.358;11.256;2023-11-21T06:20:27;6.40;99.90
8643;DHT22;4359;49.358;11.256;2023-11-21T06:22:53;6.40;99.90
8643;DHT22;4359;49.358;11.256;2023-11-21T06:25:19;6.30;99.90
8643;DHT22;4359;49.358;11.256;2023-11-21T06:27:47;6.30;99.90
8643;DHT22;4359;49.358;11.256;2023-11-21T06:30:13;6.20;99.90
8643;DHT22;4359;49.358;11.256;2023-11-21T06:32:39;6.20;99.90
8643;DHT22;4359;49.358;11.256;2023-11-21T06:35:10;6.20;99.90
8643;DHT22;4359;49.358;11.256;2023-11-21T06:37:36;6.20;99.90
8643;DHT22;4359;49.358;11.256;2023-11-21T06:40:02;6.20;99.90
8643;DHT22;4359;49.358;11.256;2023-11-21T06:42:29;6.20;99.90
8643;DHT22;4359;49.358;11.256;2023-11-21T06:44:55;6.20;99.90
8643;DHT22;4359;49.358;11.256;2023-11-21T06:47:24;6.20;99.90
8643;DHT22;4359;49.358;11.256;2023-11-21T06:49:54;6.20;99.90
8643;DHT22;4359;49.358;11.256;2023-11-21T06:52:20;6.30;99.90
8643;DHT22;4359;49.358;11.256;2023-11-21T06:54:47;6.40;99.90
8643;DHT22;4359;49.358;11.256;2023-11-21T07:00:16;6.40;99.90
8643;DHT22;4359;49.358;11.256;2023-11-21T07:02:43;6.30;99.90
8643;DHT22;4359;49.358;11.256;2023-11-21T07:05:09;6.40;99.90
8643;DHT22;4359;49.358;11.256;2023-11-21T07:07:34;6.40;99.90
8643;DHT22;4359;49.358;11.256;2023-11-21T07:10:01;6.50;99.90
8643;DHT22;4359;49.358;11.256;2023-11-21T07:12:29;6.40;99.90
8643;DHT22;4359;49.358;11.256;2023-11-21T07:14:55;6.50;99.90
8643;DHT22;4359;49.358;11.256;2023-11-21T07:17:20;6.50;99.90
8643;DHT22;4359;49.358;11.256;2023-11-21T07:19:48;6.50;99.90
8643;DHT22;4359;49.358;11.256;2023-11-21T07:22:14;6.50;99.90
8643;DHT22;4359;49.358;11.256;2023-11-21T07:24:40;6.60;99.90
8643;DHT22;4359;49.358;11.256;2023-11-21T07:27:06;6.60;99.90
8643;DHT22;4359;49.358;11.256;2023-11-21T07:29:31;6.70;99.90
8643;DHT22;4359;49.358;11.256;2023-11-21T07:31:58;6.70;99.90
8643;DHT22;4359;49.358;11.256;2023-11-21T07:34:23;6.80;99.90
8643;DHT22;4359;49.358;11.256;2023-11-21T07:36:49;6.80;99.90
8643;DHT22;4359;49.358;11.256;2023-11-21T07:39:14;6.90;99.90
8643;DHT22;4359;49.358;11.256;2023-11-21T07:41:41;7.00;99.90
8643;DHT22;4359;49.358;11.256;2023-11-21T07:44:14;7.10;99.90
8643;DHT22;4359;49.358;11.256;2023-11-21T07:46:39;7.10;99.90
8643;DHT22;4359;49.358;11.256;2023-11-21T07:49:05;7.20;99.90
8643;DHT22;4359;49.358;11.256;2023-11-21T07:51:31;7.10;99.90
8643;DHT22;4359;49.358;11.256;2023-11-21T07:53:56;7.20;99.90
8643;DHT22;4359;49.358;11.256;2023-11-21T07:56:22;7.30;99.90
8643;DHT22;4359;49.358;11.256;2023-11-21T07:58:47;7.40;99.90
8643;DHT22;4359;49.358;11.256;2023-11-21T08:01:13;7.60;99.90
8643;DHT22;4359;49.358;11.256;2023-11-21T08:03:39;7.60;99.90
8643;DHT22;4359;49.358;11.256;2023-11-21T08:06:04;7.70;99.90
8643;DHT22;4359;49.358;11.256;2023-11-21T08:08:31;7.50;99.90
8643;DHT22;4359;49.358;11.256;2023-11-21T08:10:57;7.60;99.90
8643;DHT22;4359;49.358;11.256;2023-11-21T08:13:23;7.80;99.90
8643;DHT22;4359;49.358;11.256;2023-11-21T08:15:49;7.60;99.90
8643;DHT22;4359;49.358;11.256;2023-11-21T08:18:14;7.60;99.90
8643;DHT22;4359;49.358;11.256;2023-11-21T08:20:40;7.80;99.90
8643;DHT22;4359;49.358;11.256;2023-11-21T08:23:06;7.90;99.90
8643;DHT22;4359;49.358;11.256;2023-11-21T08:25:34;8.00;99.90
8643;DHT22;4359;49.358;11.256;2023-11-21T08:28:00;7.90;99.90
8643;DHT22;4359;49.358;11.256;2023-11-21T08:30:27;7.90;99.90
8643;DHT22;4359;49.358;11.256;2023-11-21T08:32:55;7.90;99.90
8643;DHT22;4359;49.358;11.256;2023-11-21T08:35:23;7.90;99.90
8643;DHT22;4359;49.358;11.256;2023-11-21T08:37:52;7.80;99.90
8643;DHT22;4359;49.358;11.256;2023-11-21T08:40:18;8.00;99.90
8643;DHT22;4359;49.358;11.256;2023-11-21T08:42:45;8.20;99.90
8643;DHT22;4359;49.358;11.256;2023-11-21T08:45:11;8.40;99.90
8643;DHT22;4359;49.358;11.256;2023-11-21T08:47:38;8.40;99.90
8643;DHT22;4359;49.358;11.256;2023-11-21T08:50:05;8.60;99.90
8643;DHT22;4359;49.358;11.256;2023-11-21T08:52:36;8.70;99.90
8643;DHT22;4359;49.358;11.256;2023-11-21T08:55:02;8.70;99.90
8643;DHT22;4359;49.358;11.256;2023-11-21T08:57:36;8.70;99.90
8643;DHT22;4359;49.358;11.256;2023-11-21T09:00:02;8.80;99.90
8643;DHT22;4359;49.358;11.256;2023-11-21T09:04:58;9.00;99.90
8643;DHT22;4359;49.358;11.256;2023-11-21T09:07:24;8.80;99.90
8643;DHT22;4359;49.358;11.256;2023-11-21T09:09:50;8.90;99.90
8643;DHT22;4359;49.358;11.256;2023-11-21T09:12:16;8.90;99.90
8643;DHT22;4359;49.358;11.256;2023-11-21T09:14:42;9.00;99.90
8643;DHT22;4359;49.358;11.256;2023-11-21T09:17:12;9.20;99.90
8643;DHT22;4359;49.358;11.256;2023-11-21T09:19:37;9.30;99.90
8643;DHT22;4359;49.358;11.256;2023-11-21T09:22:03;9.20;99.90
8643;DHT22;4359;49.358;11.256;2023-11-21T09:24:30;9.10;99.90
8643;DHT22;4359;49.358;11.256;2023-11-21T09:26:56;8.90;99.90
8643;DHT22;4359;49.358;11.256;2023-11-21T09:29:22;8.80;99.90
8643;DHT22;4359;49.358;11.256;2023-11-21T09:31:47;8.90;99.90
8643;DHT22;4359;49.358;11.256;2023-11-21T09:34:13;8.90;99.90
8643;DHT22;4359;49.358;11.256;2023-11-21T09:36:38;9.00;99.90
8643;DHT22;4359;49.358;11.256;2023-11-21T09:39:04;8.90;99.90
8643;DHT22;4359;49.358;11.256;2023-11-21T09:44:09;9.20;99.90
8643;DHT22;4359;49.358;11.256;2023-11-21T09:46:39;9.20;99.90
8643;DHT22;4359;49.358;11.256;2023-11-21T09:49:08;9.30;99.90
8643;DHT22;4359;49.358;11.256;2023-11-21T09:51:38;9.30;99.90
8643;DHT22;4359;49.358;11.256;2023-11-21T09:54:06;9.30;99.90
8643;DHT22;4359;49.358;11.256;2023-11-21T09:56:35;9.30;99.90
8643;DHT22;4359;49.358;11.256;2023-11-21T09:59:01;9.30;99.90
8643;DHT22;4359;49.358;11.256;2023-11-21T10:01:29;9.20;99.90
8643;DHT22;4359;49.358;11.256;2023-11-21T10:03:56;9.10;99.90
8643;DHT22;4359;49.358;11.256;2023-11-21T10:06:21;9.20;99.90
8643;DHT22;4359;49.358;11.256;2023-11-21T10:08:48;9.00;99.90
8643;DHT22;4359;49.358;11.256;2023-11-21T10:11:15;8.80;99.90
8643;DHT22;4359;49.358;11.256;2023-11-21T10:13:43;8.80;99.90
8643;DHT22;4359;49.358;11.256;2023-11-21T10:16:11;8.80;99.90
8643;DHT22;4359;49.358;11.256;2023-11-21T10:18:39;8.80;99.90
8643;DHT22;4359;49.358;11.256;2023-11-21T10:21:06;8.90;99.90
8643;DHT22;4359;49.358;11.256;2023-11-21T10:23:32;9.00;99.90
8643;DHT22;4359;49.358;11.256;2023-11-21T10:25:57;9.10;99.90
8643;DHT22;4359;49.358;11.256;2023-11-21T10:28:24;9.20;99.90
8643;DHT22;4359;49.358;11.256;2023-11-21T10:30:50;9.30;99.90
8643;DHT22;4359;49.358;11.256;2023-11-21T10:33:15;9.30;99.90
8643;DHT22;4359;49.358;11.256;2023-11-21T10:38:07;9.10;99.90
8643;DHT22;4359;49.358;11.256;2023-11-21T10:40:39;9.10;99.90
8643;DHT22;4359;49.358;11.256;2023-11-21T10:43:08;9.00;99.90
8643;DHT22;4359;49.358;11.256;2023-11-21T10:45:35;9.00;99.90
8643;DHT22;4359;49.358;11.256;2023-11-21T10:48:04;9.00;99.90
8643;DHT22;4359;49.358;11.256;2023-11-21T10:50:30;9.20;99.90
8643;DHT22;4359;49.358;11.256;2023-11-21T10:52:57;9.20;99.90
8643;DHT22;4359;49.358;11.256;2023-11-21T10:55:23;9.40;99.90
8643;DHT22;4359;49.358;11.256;2023-11-21T10:57:53;9.40;99.90
8643;DHT22;4359;49.358;11.256;2023-11-21T11:00:19;9.50;99.90
8643;DHT22;4359;49.358;11.256;2023-11-21T11:02:51;9.70;99.90
8643;DHT22;4359;49.358;11.256;2023-11-21T11:05:18;9.70;99.90
8643;DHT22;4359;49.358;11.256;2023-11-21T11:07:44;9.70;99.90
8643;DHT22;4359;49.358;11.256;2023-11-21T11:10:12;9.70;99.90
8643;DHT22;4359;49.358;11.256;2023-11-21T11:12:40;10.10;99.90
8643;DHT22;4359;49.358;11.256;2023-11-21T11:15:06;10.20;99.90
8643;DHT22;4359;49.358;11.256;2023-11-21T11:17:35;10.20;99.90
8643;DHT22;4359;49.358;11.256;2023-11-21T11:20:04;10.20;99.90
8643;DHT22;4359;49.358;11.256;2023-11-21T11:22:36;10.20;99.90
8643;DHT22;4359;49.358;11.256;2023-11-21T11:25:08;10.00;99.90
8643;DHT22;4359;49.358;11.256;2023-11-21T11:27:52;9.60;99.90
8643;DHT22;4359;49.358;11.256;2023-11-21T11:38:07;9.40;99.90
8643;DHT22;4359;49.358;11.256;2023-11-21T11:41:06;9.50;99.90
8643;DHT22;4359;49.358;11.256;2023-11-21T11:43:25;9.50;99.90
8643;DHT22;4359;49.358;11.256;2023-11-21T11:45:52;9.30;99.90
8643;DHT22;4359;49.358;11.256;2023-11-21T11:48:19;9.20;99.90
8643;DHT22;4359;49.358;11.256;2023-11-21T11:51:02;9.30;99.90
8643;DHT22;4359;49.358;11.256;2023-11-21T11:53:37;9.30;99.90
8643;DHT22;4359;49.358;11.256;2023-11-21T11:56:24;9.40;99.90
8643;DHT22;4359;49.358;11.256;2023-11-21T11:58:53;9.60;99.90
8643;DHT22;4359;49.358;11.256;2023-11-21T12:01:19;9.80;99.90
8643;DHT22;4359;49.358;11.256;2023-11-21T12:04:14;9.90;99.90
8643;DHT22;4359;49.358;11.256;2023-11-21T12:06:34;9.80;99.90
8643;DHT22;4359;49.358;11.256;2023-11-21T12:09:01;9.70;99.90
8643;DHT22;4359;49.358;11.256;2023-11-21T12:11:30;9.80;99.90
8643;DHT22;4359;49.358;11.256;2023-11-21T12:13:56;9.80;99.90
8643;DHT22;4359;49.358;11.256;2023-11-21T12:16:22;9.70;99.90
8643;DHT22;4359;49.358;11.256;2023-11-21T12:18:48;9.80;99.90
8643;DHT22;4359;49.358;11.256;2023-11-21T12:21:13;9.60;99.90
8643;DHT22;4359;49.358;11.256;2023-11-21T12:23:39;9.50;99.90
8643;DHT22;4359;49.358;11.256;2023-11-21T12:26:06;9.40;99.90
8643;DHT22;4359;49.358;11.256;2023-11-21T12:28:31;9.20;99.90
8643;DHT22;4359;49.358;11.256;2023-11-21T12:30:57;9.10;99.90
8643;DHT22;4359;49.358;11.256;2023-11-21T12:33:22;9.10;99.90
8643;DHT22;4359;49.358;11.256;2023-11-21T12:35:48;9.10;99.90
8643;DHT22;4359;49.358;11.256;2023-11-21T12:38:14;9.10;99.90
8643;DHT22;4359;49.358;11.256;2023-11-21T12:40:39;9.00;99.90
8643;DHT22;4359;49.358;11.256;2023-11-21T12:43:05;9.00;99.90
8643;DHT22;4359;49.358;11.256;2023-11-21T12:45:32;8.90;99.90
8643;DHT22;4359;49.358;11.256;2023-11-21T12:48:01;8.90;99.90
8643;DHT22;4359;49.358;11.256;2023-11-21T12:50:29;8.90;99.90
8643;DHT22;4359;49.358;11.256;2023-11-21T12:53:03;8.90;99.90
8643;DHT22;4359;49.358;11.256;2023-11-21T12:55:33;8.90;99.90
8643;DHT22;4359;49.358;11.256;2023-11-21T12:58:02;8.90;99.90
8643;DHT22;4359;49.358;11.256;2023-11-21T13:00:35;8.90;99.90
8643;DHT22;4359;49.358;11.256;2023-11-21T13:03:03;9.00;99.90
8643;DHT22;4359;49.358;11.256;2023-11-21T13:05:38;9.00;99.90
8643;DHT22;4359;49.358;11.256;2023-11-21T13:08:05;9.00;99.90
8643;DHT22;4359;49.358;11.256;2023-11-21T13:10:34;9.10;99.90
8643;DHT22;4359;49.358;11.256;2023-11-21T13:13:02;9.10;99.90
8643;DHT22;4359;49.358;11.256;2023-11-21T13:15:30;9.10;99.90
8643;DHT22;4359;49.358;11.256;2023-11-21T13:17:58;9.00;99.90
8643;DHT22;4359;49.358;11.256;2023-11-21T13:20:24;8.90;99.90
8643;DHT22;4359;49.358;11.256;2023-11-21T13:25:17;8.80;99.90
8643;DHT22;4359;49.358;11.256;2023-11-21T13:27:45;8.90;99.90
8643;DHT22;4359;49.358;11.256;2023-11-21T13:30:12;8.80;99.90
8643;DHT22;4359;49.358;11.256;2023-11-21T13:32:44;8.80;99.90
8643;DHT22;4359;49.358;11.256;2023-11-21T13:35:11;8.70;99.90
8643;DHT22;4359;49.358;11.256;2023-11-21T13:37:49;8.70;99.90
8643;DHT22;4359;49.358;11.256;2023-11-21T13:40:19;8.80;99.90
8643;DHT22;4359;49.358;11.256;2023-11-21T13:42:48;8.80;99.90
8643;DHT22;4359;49.358;11.256;2023-11-21T13:45:13;8.90;99.90
8643;DHT22;4359;49.358;11.256;2023-11-21T13:47:39;8.90;99.90
8643;DHT22;4359;49.358;11.256;2023-11-21T13:50:05;8.90;99.90
8643;DHT22;4359;49.358;11.256;2023-11-21T13:52:39;8.90;99.90
8643;DHT22;4359;49.358;11.256;2023-11-21T13:55:04;8.90;99.90
8643;DHT22;4359;49.358;11.256;2023-11-21T13:57:33;9.00;99.90
8643;DHT22;4359;49.358;11.256;2023-11-21T13:59:58;9.00;99.90
8643;DHT22;4359;49.358;11.256;2023-11-21T14:02:24;8.90;99.90
8643;DHT22;4359;49.358;11.256;2023-11-21T14:04:59;8.80;99.90
8643;DHT22;4359;49.358;11.256;2023-11-21T14:07:26;8.70;99.90
8643;DHT22;4359;49.358;11.256;2023-11-21T14:10:03;8.70;99.90
8643;DHT22;4359;49.358;11.256;2023-11-21T14:12:30;8.60;99.90
8643;DHT22;4359;49.358;11.256;2023-11-21T14:14:59;8.60;99.90
8643;DHT22;4359;49.358;11.256;2023-11-21T14:17:25;8.50;99.90
8643;DHT22;4359;49.358;11.256;2023-11-21T14:19:50;8.50;99.90
8643;DHT22;4359;49.358;11.256;2023-11-21T14:22:16;8.50;99.90
8643;DHT22;4359;49.358;11.256;2023-11-21T14:24:42;8.60;99.90
8643;DHT22;4359;49.358;11.256;2023-11-21T14:27:12;8.60;99.90
8643;DHT22;4359;49.358;11.256;2023-11-21T14:29:37;8.50;99.90
8643;DHT22;4359;49.358;11.256;2023-11-21T14:32:06;8.50;99.90
8643;DHT22;4359;49.358;11.256;2023-11-21T14:34:33;8.50;99.90
8643;DHT22;4359;49.358;11.256;2023-11-21T14:36:58;8.50;99.90
8643;DHT22;4359;49.358;11.256;2023-11-21T14:39:24;8.50;99.90
8643;DHT22;4359;49.358;11.256;2023-11-21T14:41:52;8.50;99.90
8643;DHT22;4359;49.358;11.256;2023-11-21T14:44:18;8.50;99.90
8643;DHT22;4359;49.358;11.256;2023-11-21T14:46:44;8.40;99.90
8643;DHT22;4359;49.358;11.256;2023-11-21T14:49:12;8.30;99.90
8643;DHT22;4359;49.358;11.256;2023-11-21T14:51:47;8.20;99.90
8643;DHT22;4359;49.358;11.256;2023-11-21T14:54:29;8.10;99.90
8643;DHT22;4359;49.358;11.256;2023-11-21T14:57:12;8.00;99.90
8643;DHT22;4359;49.358;11.256;2023-11-21T14:59:44;7.90;99.90
8643;DHT22;4359;49.358;11.256;2023-11-21T15:02:16;7.90;99.90
8643;DHT22;4359;49.358;11.256;2023-11-21T15:04:46;7.80;99.90
8643;DHT22;4359;49.358;11.256;2023-11-21T15:07:13;7.70;99.90
8643;DHT22;4359;49.358;11.256;2023-11-21T15:09:38;7.60;99.90
8643;DHT22;4359;49.358;11.256;2023-11-21T15:12:08;7.50;99.90
8643;DHT22;4359;49.358;11.256;2023-11-21T15:14:40;7.30;99.90
8643;DHT22;4359;49.358;11.256;2023-11-21T15:17:06;7.30;99.90
8643;DHT22;4359;49.358;11.256;2023-11-21T15:19:32;7.30;99.90
8643;DHT22;4359;49.358;11.256;2023-11-21T15:21:58;7.20;99.90
8643;DHT22;4359;49.358;11.256;2023-11-21T15:24:24;7.20;99.90
8643;DHT22;4359;49.358;11.256;2023-11-21T15:26:50;7.10;99.90
8643;DHT22;4359;49.358;11.256;2023-11-21T15:29:16;7.00;99.90
8643;DHT22;4359;49.358;11.256;2023-11-21T15:31:42;6.90;99.90
8643;DHT22;4359;49.358;11.256;2023-11-21T15:34:13;6.90;99.90
8643;DHT22;4359;49.358;11.256;2023-11-21T15:36:38;6.90;99.90
8643;DHT22;4359;49.358;11.256;2023-11-21T15:39:04;6.90;99.90
8643;DHT22;4359;49.358;11.256;2023-11-21T15:41:30;6.80;99.90
8643;DHT22;4359;49.358;11.256;2023-11-21T15:43:55;6.80;99.90
8643;DHT22;4359;49.358;11.256;2023-11-21T15:46:21;6.80;99.90
8643;DHT22;4359;49.358;11.256;2023-11-21T15:48:47;6.70;99.90
8643;DHT22;4359;49.358;11.256;2023-11-21T15:51:19;6.70;99.90
8643;DHT22;4359;49.358;11.256;2023-11-21T15:53:45;6.60;99.90
8643;DHT22;4359;49.358;11.256;2023-11-21T15:56:11;6.60;99.90
8643;DHT22;4359;49.358;11.256;2023-11-21T15:58:41;6.60;99.90
8643;DHT22;4359;49.358;11.256;2023-11-21T16:01:11;6.50;99.90
8643;DHT22;4359;49.358;11.256;2023-11-21T16:03:38;6.50;99.90
8643;DHT22;4359;49.358;11.256;2023-11-21T16:06:03;6.50;99.90
8643;DHT22;4359;49.358;11.256;2023-11-21T16:08:29;6.50;99.90
8643;DHT22;4359;49.358;11.256;2023-11-21T16:10:55;6.50;99.90
8643;DHT22;4359;49.358;11.256;2023-11-21T16:13:21;6.50;99.90
8643;DHT22;4359;49.358;11.256;2023-11-21T16:15:47;6.50;99.90
8643;DHT22;4359;49.358;11.256;2023-11-21T16:18:12;6.50;99.90
8643;DHT22;4359;49.358;11.256;2023-11-21T16:20:38;6.50;99.90